createdAt,value
2017-04-06T00:00:25.540Z,38.78
2017-04-06T00:01:23.011Z,41.02
2017-04-06T00:02:20.490Z,39.85
2017-04-06T00:03:18.702Z,36.73
2017-04-06T00:04:16.175Z,36.03
2017-04-06T00:05:14.382Z,38.77
2017-04-06T00:06:11.871Z,38.60
2017-04-06T00:07:10.084Z,38.62
2017-04-06T00:08:07.554Z,37.30
2017-04-06T00:09:05.033Z,44.88
2017-04-06T00:10:03.231Z,37.65
2017-04-06T00:11:00.696Z,39.27
2017-04-06T00:11:58.498Z,37.32
2017-04-06T00:12:55.966Z,37.30
2017-04-06T00:13:53.445Z,39.52
2017-04-06T00:14:50.925Z,37.42
2017-04-06T00:15:48.398Z,35.82
2017-04-06T00:16:45.871Z,36.78
2017-04-06T00:17:44.091Z,32.37
2017-04-06T00:18:41.567Z,34.40
2017-04-06T00:19:39.777Z,33.45
2017-04-06T00:20:37.238Z,37.83
2017-04-06T00:21:34.714Z,39.47
2017-04-06T00:22:32.934Z,32.42
2017-04-06T00:23:30.402Z,30.15
2017-04-06T00:24:27.866Z,31.25
2017-04-06T00:25:26.067Z,31.82
2017-04-06T00:26:23.531Z,32.00
2017-04-06T00:27:21.009Z,32.03
2017-04-06T00:28:19.495Z,35.17
2017-04-06T00:29:16.963Z,34.30
2017-04-06T00:30:14.431Z,28.55
2017-04-06T00:31:11.903Z,32.40
2017-04-06T00:32:09.373Z,35.45
2017-04-06T00:33:06.834Z,31.65
2017-04-06T00:34:04.338Z,32.18
2017-04-06T00:35:01.803Z,36.62
2017-04-06T00:35:59.270Z,34.35
2017-04-06T00:36:56.737Z,31.78
2017-04-06T00:37:54.939Z,37.17
2017-04-06T00:38:52.417Z,32.63
2017-04-06T00:39:50.114Z,35.48
2017-04-06T00:40:47.587Z,29.42
2017-04-06T00:41:45.051Z,29.23
2017-04-06T00:42:42.515Z,30.27
2017-04-06T00:43:40.720Z,31.60
2017-04-06T00:44:38.195Z,28.55
2017-04-06T00:45:35.683Z,33.28
2017-04-06T00:46:33.215Z,31.35
2017-04-06T00:47:30.679Z,32.20
2017-04-06T00:48:28.147Z,34.77
2017-04-06T00:49:25.611Z,35.90
2017-04-06T00:50:23.823Z,28.70
2017-04-06T00:51:21.312Z,35.00
2017-04-06T00:52:19.511Z,31.88
2017-04-06T00:53:16.987Z,32.63
2017-04-06T00:54:14.458Z,37.20
2017-04-06T00:55:12.679Z,34.53
2017-04-06T00:56:10.134Z,30.20
2017-04-06T00:57:07.616Z,33.02
2017-04-06T00:58:05.083Z,32.72
2017-04-06T00:59:02.549Z,33.68
2017-04-06T01:00:00.011Z,27.18
2017-04-06T01:00:58.211Z,30.22
2017-04-06T01:01:55.682Z,33.27
2017-04-06T01:02:53.382Z,28.25
2017-04-06T01:03:50.847Z,33.38
2017-04-06T01:04:48.310Z,29.68
2017-04-06T01:05:45.779Z,29.58
2017-04-06T01:06:43.995Z,29.42
2017-04-06T01:07:41.475Z,30.77
2017-04-06T01:08:39.699Z,29.90
2017-04-06T01:09:37.164Z,28.35
2017-04-06T01:10:34.632Z,26.55
2017-04-06T01:11:32.839Z,28.77
2017-04-06T01:12:30.311Z,27.25
2017-04-06T01:13:27.783Z,27.68
2017-04-06T01:14:25.283Z,27.68
2017-04-06T01:15:22.746Z,27.87
2017-04-06T01:16:21.036Z,24.85
2017-04-06T01:17:18.577Z,28.98
2017-04-06T01:18:16.048Z,23.68
2017-04-06T01:19:13.519Z,23.75
2017-04-06T01:20:11.980Z,26.88
2017-04-06T01:21:09.350Z,24.27
2017-04-06T01:22:07.552Z,26.18
2017-04-06T01:23:05.023Z,24.97
2017-04-06T01:24:02.483Z,23.92
2017-04-06T01:25:00.762Z,24.33
2017-04-06T01:25:58.261Z,22.50
2017-04-06T01:26:55.735Z,25.92
2017-04-06T01:27:53.203Z,23.25
2017-04-06T01:28:50.671Z,25.00
2017-04-06T01:29:48.135Z,23.13
2017-04-06T01:30:46.347Z,25.02
2017-04-06T01:31:44.083Z,26.02
2017-04-06T01:32:41.547Z,22.03
2017-04-06T01:33:39.011Z,25.35
2017-04-06T01:34:36.484Z,22.65
2017-04-06T01:35:34.704Z,29.13
2017-04-06T01:36:32.151Z,22.65
2017-04-06T01:37:29.635Z,24.65
2017-04-06T01:38:27.105Z,24.35
2017-04-06T01:39:24.570Z,25.62
2017-04-06T01:40:22.040Z,17.82
2017-04-06T01:41:20.250Z,24.97
2017-04-06T01:42:17.730Z,34.17
2017-04-06T01:43:15.939Z,20.07
2017-04-06T01:44:13.402Z,24.63
2017-04-06T01:45:10.904Z,24.63
2017-04-06T01:46:08.376Z,21.75
2017-04-06T01:47:05.857Z,20.88
2017-04-06T01:48:04.151Z,21.37
2017-04-06T01:49:01.623Z,24.13
2017-04-06T01:49:59.087Z,25.53
2017-04-06T01:50:56.552Z,19.65
2017-04-06T01:51:54.761Z,17.28
2017-04-06T01:52:52.250Z,20.00
2017-04-06T01:53:50.459Z,18.87
2017-04-06T01:54:47.927Z,21.02
2017-04-06T01:55:46.367Z,23.83
2017-04-06T01:56:43.735Z,21.23
2017-04-06T01:57:41.947Z,25.60
2017-04-06T01:58:39.675Z,15.42
2017-04-06T01:59:37.155Z,15.42
2017-04-06T02:00:34.618Z,19.43
2017-04-06T02:01:32.083Z,19.92
2017-04-06T02:02:30.293Z,17.62
2017-04-06T02:03:27.759Z,19.42
2017-04-06T02:04:25.251Z,19.42
2017-04-06T02:05:22.719Z,18.13
2017-04-06T02:06:20.184Z,17.83
2017-04-06T02:07:17.651Z,21.00
2017-04-06T02:08:15.119Z,17.57
2017-04-06T02:09:12.588Z,15.75
2017-04-06T02:10:10.295Z,17.35
2017-04-06T02:11:07.759Z,16.88
2017-04-06T02:12:05.235Z,17.18
2017-04-06T02:13:02.695Z,13.08
2017-04-06T02:14:00.907Z,16.07
2017-04-06T02:14:58.374Z,19.95
2017-04-06T02:15:55.858Z,17.65
2017-04-06T02:16:53.322Z,16.88
2017-04-06T02:17:50.793Z,18.97
2017-04-06T02:18:48.250Z,13.53
2017-04-06T02:19:46.459Z,14.53
2017-04-06T02:20:43.918Z,17.37
2017-04-06T02:21:41.411Z,14.38
2017-04-06T02:22:38.878Z,14.45
2017-04-06T02:23:36.343Z,16.27
2017-04-06T02:24:33.806Z,11.28
2017-04-06T02:25:31.267Z,14.42
2017-04-06T02:26:29.487Z,9.72
2017-04-06T02:27:26.962Z,11.13
2017-04-06T02:28:25.168Z,12.97
2017-04-06T02:29:22.635Z,10.82
2017-04-06T02:30:20.114Z,10.63
2017-04-06T02:31:18.316Z,12.05
2017-04-06T02:32:15.803Z,11.93
2017-04-06T02:33:14.019Z,12.53
2017-04-06T02:34:11.479Z,15.75
2017-04-06T02:35:08.957Z,12.50
2017-04-06T02:36:07.151Z,11.55
2017-04-06T02:37:04.627Z,11.12
2017-04-06T02:38:02.118Z,9.22
2017-04-06T02:38:59.582Z,11.53
2017-04-06T02:39:57.051Z,12.57
2017-04-06T02:40:54.506Z,12.12
2017-04-06T02:41:52.711Z,11.73
2017-04-06T02:42:50.174Z,12.27
2017-04-06T02:43:47.664Z,7.02
2017-04-06T02:44:45.123Z,9.65
2017-04-06T02:45:42.584Z,9.83
2017-04-06T02:46:40.046Z,10.37
2017-04-06T02:47:37.506Z,12.82
2017-04-06T02:48:35.714Z,8.63
2017-04-06T02:49:33.207Z,11.77
2017-04-06T02:50:31.415Z,10.15
2017-04-06T02:51:28.876Z,10.52
2017-04-06T02:52:26.338Z,6.85
2017-04-06T02:53:23.801Z,12.32
2017-04-06T02:54:22.006Z,10.00
2017-04-06T02:55:19.503Z,10.65
2017-04-06T02:56:17.709Z,13.23
2017-04-06T02:57:15.177Z,6.65
2017-04-06T02:58:12.651Z,6.62
2017-04-06T02:59:10.105Z,11.28
2017-04-06T03:00:07.567Z,9.77
2017-04-06T03:01:05.047Z,11.28
2017-04-06T03:02:03.342Z,9.05
2017-04-06T03:03:00.883Z,8.98
2017-04-06T03:03:58.360Z,11.65
2017-04-06T03:04:55.827Z,11.62
2017-04-06T03:05:53.292Z,5.77
2017-04-06T03:06:51.519Z,10.10
2017-04-06T03:07:48.979Z,8.40
2017-04-06T03:08:47.179Z,9.47
2017-04-06T03:09:44.648Z,8.12
2017-04-06T03:10:42.107Z,9.68
2017-04-06T03:11:39.575Z,7.28
2017-04-06T03:12:37.795Z,14.75
2017-04-06T03:13:35.259Z,8.08
2017-04-06T03:14:32.719Z,12.52
2017-04-06T03:15:30.923Z,7.37
2017-04-06T03:16:28.387Z,8.15
2017-04-06T03:17:25.864Z,9.10
2017-04-06T03:18:23.327Z,6.83
2017-04-06T03:19:20.787Z,7.83
2017-04-06T03:20:18.246Z,10.75
2017-04-06T03:21:15.710Z,7.12
2017-04-06T03:22:13.936Z,8.60
2017-04-06T03:23:11.391Z,6.90
2017-04-06T03:24:08.866Z,8.78
2017-04-06T03:25:06.328Z,7.70
2017-04-06T03:26:03.791Z,8.68
2017-04-06T03:27:01.248Z,9.40
2017-04-06T03:27:58.734Z,6.57
2017-04-06T03:28:56.191Z,8.62
2017-04-06T03:29:53.656Z,10.27
2017-04-06T03:30:51.131Z,11.18
2017-04-06T03:31:49.335Z,7.78
2017-04-06T03:32:46.798Z,11.02
2017-04-06T03:33:44.503Z,8.90
2017-04-06T03:34:41.965Z,9.72
2017-04-06T03:35:39.434Z,11.58
2017-04-06T03:36:36.891Z,13.32
2017-04-06T03:37:34.379Z,11.87
2017-04-06T03:38:31.834Z,5.12
2017-04-06T03:39:29.330Z,7.55
2017-04-06T03:40:27.544Z,7.87
2017-04-06T03:41:25.014Z,8.07
2017-04-06T03:42:22.479Z,9.33
2017-04-06T03:43:20.686Z,5.15
2017-04-06T03:44:18.151Z,14.32
2017-04-06T03:45:15.635Z,5.70
2017-04-06T03:46:13.098Z,6.60
2017-04-06T03:47:10.560Z,8.12
2017-04-06T03:48:08.025Z,5.55
2017-04-06T03:49:05.487Z,5.48
2017-04-06T03:50:03.711Z,6.58
2017-04-06T03:51:01.506Z,11.12
2017-04-06T03:51:58.971Z,9.37
2017-04-06T03:52:56.459Z,9.13
2017-04-06T03:53:54.890Z,4.50
2017-04-06T03:54:52.251Z,6.05
2017-04-06T03:55:49.720Z,6.17
2017-04-06T03:56:47.943Z,6.72
2017-04-06T03:57:45.403Z,5.63
2017-04-06T03:58:43.607Z,8.08
2017-04-06T03:59:41.073Z,7.88
2017-04-06T04:00:38.529Z,7.67
2017-04-06T04:01:35.991Z,8.83
2017-04-06T04:02:34.306Z,10.05
2017-04-06T04:03:31.762Z,9.58
2017-04-06T04:04:29.219Z,7.85
2017-04-06T04:05:26.682Z,8.20
2017-04-06T04:06:24.879Z,8.23
2017-04-06T04:07:22.363Z,7.37
2017-04-06T04:08:20.794Z,4.42
2017-04-06T04:09:18.159Z,8.45
2017-04-06T04:10:15.623Z,11.17
2017-04-06T04:11:13.831Z,4.38
2017-04-06T04:12:11.327Z,5.62
2017-04-06T04:13:09.527Z,6.12
2017-04-06T04:14:06.986Z,7.97
2017-04-06T04:15:04.459Z,5.78
2017-04-06T04:16:02.663Z,8.97
2017-04-06T04:17:00.123Z,8.33
2017-04-06T04:17:57.930Z,7.23
2017-04-06T04:18:55.391Z,9.70
2017-04-06T04:19:52.847Z,6.93
2017-04-06T04:20:50.308Z,6.07
2017-04-06T04:21:47.767Z,7.68
2017-04-06T04:22:45.972Z,4.33
2017-04-06T04:23:43.458Z,6.08
2017-04-06T04:24:41.664Z,4.38
2017-04-06T04:25:39.124Z,12.63
2017-04-06T04:26:36.586Z,6.27
2017-04-06T04:27:34.046Z,7.03
2017-04-06T04:28:32.247Z,6.90
2017-04-06T04:29:29.979Z,4.28
2017-04-06T04:30:27.452Z,4.10
2017-04-06T04:31:24.899Z,5.73
2017-04-06T04:32:22.361Z,9.47
2017-04-06T04:33:19.823Z,5.70
2017-04-06T04:34:18.031Z,4.63
2017-04-06T04:35:15.521Z,10.05
2017-04-06T04:36:13.718Z,7.60
2017-04-06T04:37:11.183Z,8.27
2017-04-06T04:38:08.647Z,6.32
2017-04-06T04:39:06.104Z,9.33
2017-04-06T04:40:04.320Z,5.37
2017-04-06T04:41:02.030Z,10.53
2017-04-06T04:41:59.495Z,4.85
2017-04-06T04:42:56.954Z,7.55
2017-04-06T04:43:54.418Z,5.25
2017-04-06T04:44:52.618Z,11.75
2017-04-06T04:45:50.087Z,6.55
2017-04-06T04:46:47.566Z,11.17
2017-04-06T04:47:45.779Z,7.82
2017-04-06T04:48:43.246Z,12.38
2017-04-06T04:49:40.700Z,6.87
2017-04-06T04:50:38.904Z,4.45
2017-04-06T04:51:36.363Z,9.57
2017-04-06T04:52:33.843Z,7.10
2017-04-06T04:53:32.044Z,9.47
2017-04-06T04:54:29.506Z,8.73
2017-04-06T04:55:26.967Z,6.10
2017-04-06T04:56:24.435Z,10.20
2017-04-06T04:57:22.655Z,10.88
2017-04-06T04:58:20.114Z,7.03
2017-04-06T04:59:17.579Z,12.13
2017-04-06T05:00:15.042Z,6.75
2017-04-06T05:01:12.503Z,9.57
2017-04-06T05:02:10.243Z,11.15
2017-04-06T05:03:07.708Z,5.15
2017-04-06T05:04:05.171Z,6.70
2017-04-06T05:05:02.636Z,8.00
2017-04-06T05:06:00.840Z,12.25
2017-04-06T05:06:58.299Z,8.03
2017-04-06T05:07:56.766Z,4.82
2017-04-06T05:08:54.110Z,7.73
2017-04-06T05:09:51.586Z,7.05
2017-04-06T05:10:49.060Z,7.58
2017-04-06T05:11:46.523Z,6.33
2017-04-06T05:12:43.987Z,8.32
2017-04-06T05:13:42.186Z,10.52
2017-04-06T05:14:39.651Z,8.70
2017-04-06T05:15:37.115Z,9.32
2017-04-06T05:16:34.584Z,14.67
2017-04-06T05:17:32.793Z,11.72
2017-04-06T05:18:30.602Z,12.48
2017-04-06T05:19:28.067Z,9.83
2017-04-06T05:20:25.527Z,8.85
2017-04-06T05:21:22.987Z,9.57
2017-04-06T05:22:20.460Z,9.85
2017-04-06T05:23:17.922Z,10.30
2017-04-06T05:24:15.481Z,9.80
2017-04-06T05:25:12.915Z,10.35
2017-04-06T05:26:10.382Z,8.98
2017-04-06T05:27:07.851Z,10.67
2017-04-06T05:28:06.050Z,15.35
2017-04-06T05:29:03.515Z,10.48
2017-04-06T05:30:00.998Z,8.88
2017-04-06T05:30:59.211Z,11.87
2017-04-06T05:31:56.690Z,8.32
2017-04-06T05:32:54.900Z,10.98
2017-04-06T05:33:52.411Z,11.50
2017-04-06T05:34:49.878Z,15.70
2017-04-06T05:35:47.371Z,13.08
2017-04-06T05:36:45.575Z,13.05
2017-04-06T05:37:43.038Z,22.82
2017-04-06T05:38:40.502Z,13.50
2017-04-06T05:39:38.799Z,15.03
2017-04-06T05:40:36.264Z,9.02
2017-04-06T05:41:33.759Z,11.45
2017-04-06T05:42:31.988Z,11.53
2017-04-06T05:43:29.442Z,12.15
2017-04-06T05:44:26.912Z,18.73
2017-04-06T05:45:24.497Z,13.32
2017-04-06T05:46:21.937Z,10.92
2017-04-06T05:47:19.455Z,12.43
2017-04-06T05:48:16.911Z,9.45
2017-04-06T05:49:14.370Z,12.82
2017-04-06T05:50:11.835Z,13.15
2017-04-06T05:51:10.055Z,14.05
2017-04-06T05:52:07.775Z,15.65
2017-04-06T05:53:05.239Z,13.92
2017-04-06T05:54:02.703Z,15.22
2017-04-06T05:55:00.164Z,16.58
2017-04-06T05:55:57.630Z,11.30
2017-04-06T05:56:55.094Z,14.82
2017-04-06T05:57:53.312Z,7.28
2017-04-06T05:58:51.511Z,15.18
2017-04-06T05:59:48.979Z,8.68
2017-04-06T06:00:46.439Z,14.93
2017-04-06T06:01:43.902Z,11.25
2017-04-06T06:02:42.113Z,14.48
2017-04-06T06:03:39.571Z,9.92
2017-04-06T06:04:37.043Z,16.42
2017-04-06T06:05:35.243Z,14.30
2017-04-06T06:06:32.710Z,15.25
2017-04-06T06:07:30.178Z,13.72
2017-04-06T06:08:28.383Z,11.73
2017-04-06T06:09:25.851Z,15.15
2017-04-06T06:10:23.315Z,10.62
2017-04-06T06:11:21.523Z,17.58
2017-04-06T06:12:19.011Z,13.30
2017-04-06T06:13:17.218Z,11.95
2017-04-06T06:14:14.682Z,15.80
2017-04-06T06:15:12.143Z,13.77
2017-04-06T06:16:10.347Z,9.32
2017-04-06T06:17:07.811Z,14.27
2017-04-06T06:18:05.627Z,7.17
2017-04-06T06:19:03.087Z,9.27
2017-04-06T06:20:00.551Z,10.93
2017-04-06T06:20:58.019Z,13.48
2017-04-06T06:21:56.228Z,13.67
2017-04-06T06:22:53.714Z,14.38
2017-04-06T06:23:51.199Z,12.17
2017-04-06T06:24:48.768Z,9.37
2017-04-06T06:25:46.208Z,14.97
2017-04-06T06:26:43.679Z,14.32
2017-04-06T06:27:41.146Z,18.83
2017-04-06T06:28:38.623Z,19.25
2017-04-06T06:29:36.344Z,8.63
2017-04-06T06:30:33.807Z,10.23
2017-04-06T06:31:31.268Z,18.15
2017-04-06T06:32:28.731Z,12.57
2017-04-06T06:33:26.207Z,16.07
2017-04-06T06:34:23.670Z,10.42
2017-04-06T06:35:21.163Z,15.47
2017-04-06T06:36:19.367Z,14.48
2017-04-06T06:37:16.832Z,12.45
2017-04-06T06:38:14.294Z,12.90
2017-04-06T06:39:11.768Z,11.33
2017-04-06T06:40:09.966Z,11.55
2017-04-06T06:41:07.751Z,11.48
2017-04-06T06:42:05.219Z,15.08
2017-04-06T06:43:02.679Z,10.28
2017-04-06T06:44:00.149Z,12.73
2017-04-06T06:44:58.351Z,20.43
2017-04-06T06:45:55.815Z,13.68
2017-04-06T06:46:53.311Z,12.67
2017-04-06T06:47:50.788Z,10.93
2017-04-06T06:48:48.254Z,9.38
2017-04-06T06:49:45.712Z,11.13
2017-04-06T06:50:43.943Z,10.92
2017-04-06T06:51:41.406Z,9.23
2017-04-06T06:52:38.878Z,6.38
2017-04-06T06:53:36.339Z,14.53
2017-04-06T06:54:33.816Z,10.82
2017-04-06T06:55:31.282Z,18.17
2017-04-06T06:56:29.494Z,11.97
2017-04-06T06:57:26.998Z,14.93
2017-04-06T06:58:24.462Z,12.37
2017-04-06T06:59:21.927Z,15.92
2017-04-06T07:00:19.428Z,10.47
2017-04-06T07:01:16.888Z,14.22
2017-04-06T07:02:14.355Z,12.07
2017-04-06T07:03:11.859Z,16.65
2017-04-06T07:04:09.335Z,11.95
2017-04-06T07:05:06.791Z,16.22
2017-04-06T07:06:04.256Z,9.37
2017-04-06T07:07:02.463Z,12.33
2017-04-06T07:07:59.923Z,12.35
2017-04-06T07:08:57.403Z,9.47
2017-04-06T07:09:55.603Z,9.97
2017-04-06T07:10:53.070Z,12.63
2017-04-06T07:11:50.532Z,9.17
2017-04-06T07:12:48.735Z,13.78
2017-04-06T07:13:46.196Z,13.87
2017-04-06T07:14:43.679Z,8.60
2017-04-06T07:15:41.883Z,9.20
2017-04-06T07:16:39.343Z,13.12
2017-04-06T07:17:36.832Z,14.22
2017-04-06T07:18:35.014Z,9.58
2017-04-06T07:19:32.483Z,12.10
2017-04-06T07:20:29.963Z,10.40
2017-04-06T07:21:28.171Z,12.82
2017-04-06T07:22:25.638Z,13.35
2017-04-06T07:23:23.094Z,14.95
2017-04-06T07:24:21.303Z,15.72
2017-04-06T07:25:18.791Z,10.15
2017-04-06T07:26:16.997Z,16.58
2017-04-06T07:27:14.462Z,11.93
2017-04-06T07:28:11.927Z,10.53
2017-04-06T07:29:10.127Z,16.77
2017-04-06T07:30:07.607Z,15.43
2017-04-06T07:31:05.075Z,8.53
2017-04-06T07:32:03.279Z,8.95
2017-04-06T07:33:00.756Z,11.42
2017-04-06T07:33:58.200Z,6.58
2017-04-06T07:34:55.679Z,10.57
2017-04-06T07:35:53.143Z,9.28
2017-04-06T07:36:50.607Z,11.75
2017-04-06T07:37:48.071Z,10.07
2017-04-06T07:38:46.276Z,12.62
2017-04-06T07:39:43.738Z,11.37
2017-04-06T07:40:41.235Z,7.32
2017-04-06T07:41:39.443Z,13.80
2017-04-06T07:42:36.915Z,9.47
2017-04-06T07:43:35.111Z,10.93
2017-04-06T07:44:32.580Z,13.03
2017-04-06T07:45:30.051Z,14.07
2017-04-06T07:46:27.527Z,12.45
2017-04-06T07:47:24.995Z,8.18
2017-04-06T07:48:22.454Z,17.93
2017-04-06T07:49:19.923Z,13.48
2017-04-06T07:50:18.127Z,17.12
2017-04-06T07:51:15.605Z,11.72
2017-04-06T07:52:13.076Z,11.62
2017-04-06T07:53:11.279Z,13.67
2017-04-06T07:54:08.751Z,14.15
2017-04-06T07:55:06.221Z,9.55
2017-04-06T07:56:04.437Z,13.72
2017-04-06T07:57:01.902Z,13.60
2017-04-06T07:58:00.103Z,11.55
2017-04-06T07:58:57.574Z,12.65
2017-04-06T07:59:55.042Z,15.08
2017-04-06T08:00:53.263Z,13.87
2017-04-06T08:01:50.727Z,9.52
2017-04-06T08:02:48.191Z,8.05
2017-04-06T08:03:46.395Z,10.95
2017-04-06T08:04:43.859Z,9.32
2017-04-06T08:05:41.385Z,8.57
2017-04-06T08:06:38.851Z,10.52
2017-04-06T08:07:36.319Z,13.12
2017-04-06T08:08:34.627Z,14.17
2017-04-06T08:09:32.067Z,8.75
2017-04-06T08:10:29.531Z,15.82
2017-04-06T08:11:27.035Z,10.80
2017-04-06T08:12:24.513Z,15.43
2017-04-06T08:13:21.983Z,12.57
2017-04-06T08:14:19.474Z,9.33
2017-04-06T08:15:16.921Z,13.47
2017-04-06T08:16:14.459Z,9.18
2017-04-06T08:17:11.922Z,9.57
2017-04-06T08:18:09.390Z,15.05
2017-04-06T08:19:07.602Z,14.27
2017-04-06T08:20:05.074Z,10.40
2017-04-06T08:21:03.287Z,14.55
2017-04-06T08:22:00.768Z,10.57
2017-04-06T08:22:58.985Z,11.80
2017-04-06T08:23:56.456Z,10.38
2017-04-06T08:24:53.919Z,9.18
2017-04-06T08:25:52.131Z,12.35
2017-04-06T08:26:49.602Z,8.25
2017-04-06T08:27:47.094Z,11.98
2017-04-06T08:28:44.569Z,7.62
2017-04-06T08:29:42.035Z,11.03
2017-04-06T08:30:40.250Z,11.03
2017-04-06T08:31:37.717Z,15.22
2017-04-06T08:32:35.204Z,15.27
2017-04-06T08:33:32.675Z,11.33
2017-04-06T08:34:30.143Z,10.07
2017-04-06T08:35:27.615Z,9.70
2017-04-06T08:36:25.825Z,12.87
2017-04-06T08:37:23.323Z,10.67
2017-04-06T08:38:21.524Z,8.65
2017-04-06T08:39:18.991Z,10.57
2017-04-06T08:40:16.462Z,8.37
2017-04-06T08:41:14.667Z,10.88
2017-04-06T08:42:12.148Z,6.38
2017-04-06T08:43:10.351Z,11.35
2017-04-06T08:44:07.814Z,9.48
2017-04-06T08:45:05.287Z,16.82
2017-04-06T08:46:03.495Z,10.83
2017-04-06T08:47:00.985Z,9.52
2017-04-06T08:47:59.195Z,12.15
2017-04-06T08:48:56.663Z,8.45
2017-04-06T08:49:54.139Z,12.40
2017-04-06T08:50:52.351Z,14.50
2017-04-06T08:51:49.826Z,11.90
2017-04-06T08:52:48.065Z,14.40
2017-04-06T08:53:45.532Z,12.13
2017-04-06T08:54:43.739Z,14.73
2017-04-06T08:55:41.213Z,10.42
2017-04-06T08:56:38.681Z,9.25
2017-04-06T08:57:36.907Z,11.33
2017-04-06T08:58:34.371Z,9.25
2017-04-06T08:59:32.591Z,9.73
2017-04-06T09:00:30.050Z,14.70
2017-04-06T09:01:27.522Z,10.52
2017-04-06T09:02:25.751Z,12.18
2017-04-06T09:03:23.228Z,10.40
2017-04-06T09:04:20.698Z,11.08
2017-04-06T09:05:18.171Z,9.68
2017-04-06T09:06:15.638Z,9.55
2017-04-06T09:07:13.859Z,8.70
2017-04-06T09:08:11.352Z,15.00
2017-04-06T09:09:08.827Z,9.53
2017-04-06T09:10:06.287Z,8.73
2017-04-06T09:11:03.790Z,10.38
2017-04-06T09:12:01.257Z,12.77
2017-04-06T09:12:58.751Z,11.53
2017-04-06T09:13:56.959Z,16.98
2017-04-06T09:14:54.437Z,17.25
2017-04-06T09:15:51.903Z,10.32
2017-04-06T09:16:49.368Z,17.77
2017-04-06T09:17:46.844Z,10.50
2017-04-06T09:18:44.331Z,17.18
2017-04-06T09:19:41.811Z,10.97
2017-04-06T09:20:39.284Z,11.78
2017-04-06T09:21:37.491Z,13.92
2017-04-06T09:22:34.965Z,10.37
2017-04-06T09:23:32.448Z,12.33
2017-04-06T09:24:29.920Z,15.18
2017-04-06T09:25:27.382Z,9.60
2017-04-06T09:26:24.848Z,13.08
2017-04-06T09:27:23.055Z,9.57
2017-04-06T09:28:20.539Z,15.93
2017-04-06T09:29:18.002Z,9.72
2017-04-06T09:30:16.214Z,10.03
2017-04-06T09:31:13.677Z,11.83
2017-04-06T09:32:11.135Z,11.62
2017-04-06T09:33:09.635Z,15.72
2017-04-06T09:34:07.099Z,15.23
2017-04-06T09:35:04.567Z,16.78
2017-04-06T09:36:02.035Z,10.73
2017-04-06T09:37:00.247Z,11.22
2017-04-06T09:37:57.714Z,12.63
2017-04-06T09:38:55.935Z,12.13
2017-04-06T09:39:53.409Z,9.60
2017-04-06T09:40:50.867Z,11.78
2017-04-06T09:41:49.078Z,12.05
2017-04-06T09:42:46.539Z,9.87
2017-04-06T09:43:44.002Z,7.25
2017-04-06T09:44:42.234Z,9.55
2017-04-06T09:45:39.695Z,10.67
2017-04-06T09:46:37.906Z,9.13
2017-04-06T09:47:35.362Z,8.72
2017-04-06T09:48:32.833Z,17.12
2017-04-06T09:49:30.286Z,10.25
2017-04-06T09:50:28.511Z,11.00
2017-04-06T09:51:25.971Z,11.35
2017-04-06T09:52:24.179Z,12.73
2017-04-06T09:53:21.657Z,10.35
2017-04-06T09:54:19.119Z,9.82
2017-04-06T09:55:16.611Z,11.93
2017-04-06T09:56:14.077Z,12.32
2017-04-06T09:57:11.539Z,7.85
2017-04-06T09:58:09.971Z,8.97
2017-04-06T09:59:07.335Z,11.97
2017-04-06T10:00:04.803Z,14.58
2017-04-06T10:01:02.286Z,9.43
2017-04-06T10:01:59.742Z,10.23
2017-04-06T10:02:57.211Z,7.95
2017-04-06T10:03:55.412Z,11.30
2017-04-06T10:04:52.879Z,10.72
2017-04-06T10:05:50.337Z,12.03
2017-04-06T10:06:48.798Z,11.67
2017-04-06T10:07:46.159Z,10.03
2017-04-06T10:08:44.368Z,13.35
2017-04-06T10:09:41.831Z,9.02
2017-04-06T10:10:39.295Z,10.38
2017-04-06T10:11:37.506Z,18.83
2017-04-06T10:12:34.987Z,9.72
2017-04-06T10:13:32.446Z,8.70
2017-04-06T10:14:30.654Z,10.05
2017-04-06T10:15:28.132Z,13.10
2017-04-06T10:16:25.586Z,13.22
2017-04-06T10:17:23.807Z,8.05
2017-04-06T10:18:21.275Z,7.75
2017-04-06T10:19:18.735Z,9.47
2017-04-06T10:20:16.938Z,11.37
2017-04-06T10:21:14.414Z,15.32
2017-04-06T10:22:11.890Z,8.50
2017-04-06T10:23:09.354Z,7.82
2017-04-06T10:24:06.817Z,9.08
2017-04-06T10:25:04.279Z,8.33
2017-04-06T10:26:02.495Z,7.20
2017-04-06T10:26:59.951Z,7.25
2017-04-06T10:27:57.448Z,13.80
2017-04-06T10:28:54.920Z,14.38
2017-04-06T10:29:52.386Z,14.55
2017-04-06T10:30:49.859Z,9.03
2017-04-06T10:31:48.054Z,12.12
2017-04-06T10:32:45.539Z,8.73
2017-04-06T10:33:43.003Z,8.65
2017-04-06T10:34:41.203Z,10.45
2017-04-06T10:35:38.667Z,10.38
2017-04-06T10:36:36.131Z,7.07
2017-04-06T10:37:34.371Z,6.18
2017-04-06T10:38:31.840Z,8.05
2017-04-06T10:39:30.051Z,7.33
2017-04-06T10:40:27.519Z,10.42
2017-04-06T10:41:24.979Z,8.00
2017-04-06T10:42:23.190Z,10.08
2017-04-06T10:43:20.675Z,8.08
2017-04-06T10:44:18.882Z,9.98
2017-04-06T10:45:16.343Z,7.20
2017-04-06T10:46:13.806Z,7.88
2017-04-06T10:47:12.012Z,9.23
2017-04-06T10:48:09.490Z,9.27
2017-04-06T10:49:06.951Z,10.25
2017-04-06T10:50:05.160Z,9.15
2017-04-06T10:51:02.620Z,8.47
2017-04-06T10:52:00.082Z,7.15
2017-04-06T10:52:57.554Z,10.57
2017-04-06T10:53:55.027Z,6.40
2017-04-06T10:54:52.487Z,8.77
2017-04-06T10:55:49.952Z,7.48
2017-04-06T10:56:47.407Z,4.20
2017-04-06T10:57:45.611Z,6.63
2017-04-06T10:58:43.092Z,7.58
2017-04-06T10:59:41.319Z,7.07
2017-04-06T11:00:38.779Z,8.12
2017-04-06T11:01:36.243Z,12.20
2017-04-06T11:02:34.446Z,4.85
2017-04-06T11:03:31.935Z,7.30
2017-04-06T11:04:30.141Z,6.87
2017-04-06T11:05:27.606Z,5.05
2017-04-06T11:06:25.079Z,9.60
2017-04-06T11:07:23.297Z,6.53
2017-04-06T11:08:20.750Z,5.37
2017-04-06T11:09:18.235Z,8.80
2017-04-06T11:10:16.431Z,5.70
2017-04-06T11:11:13.896Z,8.08
2017-04-06T11:12:11.359Z,6.62
2017-04-06T11:13:09.567Z,6.00
2017-04-06T11:14:07.054Z,6.27
2017-04-06T11:15:04.519Z,6.03
2017-04-06T11:16:02.727Z,7.97
2017-04-06T11:17:00.196Z,11.00
2017-04-06T11:17:57.667Z,9.23
2017-04-06T11:18:55.135Z,6.23
2017-04-06T11:19:52.615Z,7.12
2017-04-06T11:20:50.079Z,8.63
2017-04-06T11:21:48.284Z,9.12
2017-04-06T11:22:45.770Z,9.62
2017-04-06T11:23:43.209Z,6.42
2017-04-06T11:24:41.672Z,7.18
2017-04-06T11:25:39.779Z,8.05
2017-04-06T11:26:37.251Z,7.30
2017-04-06T11:27:34.719Z,7.68
2017-04-06T11:28:32.954Z,9.92
2017-04-06T11:29:30.415Z,8.05
2017-04-06T11:30:28.622Z,9.73
2017-04-06T11:31:26.086Z,5.45
2017-04-06T11:32:23.550Z,11.30
2017-04-06T11:33:21.771Z,13.68
2017-04-06T11:34:19.246Z,11.82
2017-04-06T11:35:17.455Z,5.78
2017-04-06T11:36:14.921Z,9.08
2017-04-06T11:37:12.382Z,8.47
2017-04-06T11:38:09.843Z,7.90
2017-04-06T11:39:08.067Z,12.03
2017-04-06T11:40:05.548Z,6.45
2017-04-06T11:41:03.749Z,9.25
2017-04-06T11:42:01.222Z,8.03
2017-04-06T11:42:58.692Z,7.75
2017-04-06T11:43:56.915Z,8.42
2017-04-06T11:44:54.383Z,10.12
2017-04-06T11:45:52.595Z,7.30
2017-04-06T11:46:50.073Z,10.47
2017-04-06T11:47:47.569Z,6.48
2017-04-06T11:48:45.027Z,11.75
2017-04-06T11:49:42.510Z,8.43
2017-04-06T11:50:40.720Z,8.63
2017-04-06T11:51:38.183Z,9.15
2017-04-06T11:52:35.657Z,8.65
2017-04-06T11:53:33.878Z,7.38
2017-04-06T11:54:31.374Z,8.65
2017-04-06T11:55:28.829Z,8.98
2017-04-06T11:56:26.295Z,14.90
2017-04-06T11:57:23.755Z,6.27
2017-04-06T11:58:21.225Z,14.92
2017-04-06T11:59:18.687Z,8.28
2017-04-06T12:00:16.184Z,11.45
2017-04-06T12:01:14.387Z,9.05
2017-04-06T12:02:11.847Z,8.25
2017-04-06T12:03:09.310Z,7.92
2017-04-06T12:04:06.767Z,7.08
2017-04-06T12:05:04.988Z,9.32
2017-04-06T12:06:02.447Z,5.02
2017-04-06T12:06:59.910Z,7.60
2017-04-06T12:07:58.128Z,7.58
2017-04-06T12:08:55.589Z,8.68
2017-04-06T12:09:53.054Z,9.98
2017-04-06T12:10:51.266Z,7.57
2017-04-06T12:11:48.731Z,7.65
2017-04-06T12:12:46.194Z,12.27
2017-04-06T12:13:44.398Z,12.93
2017-04-06T12:14:41.867Z,5.55
2017-04-06T12:15:39.346Z,5.73
2017-04-06T12:16:37.551Z,8.23
2017-04-06T12:17:35.019Z,6.80
2017-04-06T12:18:32.471Z,5.32
2017-04-06T12:19:30.684Z,7.10
2017-04-06T12:20:28.175Z,5.93
2017-04-06T12:21:26.375Z,6.98
2017-04-06T12:22:23.835Z,4.42
2017-04-06T12:23:21.303Z,5.68
2017-04-06T12:24:18.759Z,5.72
2017-04-06T12:25:16.978Z,5.07
2017-04-06T12:26:14.447Z,6.43
2017-04-06T12:27:12.652Z,5.18
2017-04-06T12:28:10.114Z,3.87
2017-04-06T12:29:07.635Z,4.25
2017-04-06T12:30:05.116Z,6.48
2017-04-06T12:31:02.578Z,7.08
2017-04-06T12:32:00.783Z,6.35